首页
METAR-TAF:

METAR-TAF

机场 :

哈利法克斯罗伯特·洛恩·斯坦菲尔德国际机场

哈利法克斯, 新斯科舍, 加拿大

纬度: 44-53N, 经度: 063-30W, 海拔: 145米

当前天气观测

该预报发布于24分钟前的20:00 UTC
风速11节,风向,有时为18节阵风
温度 13°C
湿度 41%
气压 1030 hPa
能見度: 24.1公里
散云层高于6500英尺

METAR: CYHZ 202000Z 35011G18KT 15SM SCT065 13/M00 A3041 RMK CU4 SLP302

时间: 17:24 (20:24 UTC)

预报

该预报发布于2小时和45分钟前的17:39 UTC
预报有效从20日的 18点(UTC)到 21日的 18点(UTC)
风速12节,风向北转西北,有时为22节阵风
能見度: 10公里
少量云层高于6000英尺
从 21日的 0000点(UTC)
风速7节,风向
能見度: 10公里
少量云层高于2000英尺
成为
从 21日的 12点(UTC)到 21日的 14点(UTC)
风速10节,风向,有时为20节阵风

TAF: CYHZ 201739Z 2018/2118 33012G22KT P6SM FEW060 FM210000 01007KT P6SM FEW020 BECMG 2112/2114 01010G20KT RMK NXT FCST BY 202100Z

超过4000个机场的气象观测和天气预报(METAR&TAF报告)。

可查询的气象台以黄色和红色小点在地图上表示。

将鼠标移到小点上方,可查看气象台名称。

然后点击查看天气观测和预报。

如需切换地图:点击带黑十字的绿色按钮放大地图;点击带横线的绿色按钮缩小地图;或者点击绿色箭头查看邻近地区的地图。


METAR-TAF: